This is the latest recevied weather packets stored in our database for station/object IW3HBX-3. If no packets are shown the sender has not sent any weather packets the latest 1 day(s).
| Time | Temp. | Humidity | Pressure | Rain* | Wind** | Luminosity | Snow |
|---|---|---|---|---|---|---|---|
| 1777981190 | 15.56° C | 80% | 1014.8 hPa | 0 mm | 1.79 m/s, 66° | 113 W/m² | - |
| 1777980890 | 15.56° C | 80% | 1014.8 hPa | 0 mm | 1.79 m/s, 73° | 111 W/m² | - |
| 1777980590 | 15.56° C | 80% | 1014.8 hPa | 0 mm | 1.79 m/s, 68° | 110 W/m² | - |
| 1777980290 | 15.56° C | 82% | 1014.8 hPa | 0 mm | 1.34 m/s, 76° | 212 W/m² | - |
| 1777979990 | 15.56° C | 82% | 1014.9 hPa | 0 mm | 1.34 m/s, 69° | 184 W/m² | - |
| 1777979690 | 15.56° C | 84% | 1014.7 hPa | 0 mm | 0.89 m/s, 71° | 311 W/m² | - |
| 1777979390 | 15.56° C | 82% | 1014.6 hPa | 0 mm | 1.34 m/s, 60° | 380 W/m² | - |
| 1777979090 | 15.56° C | 82% | 1014.7 hPa | 0 mm | 1.34 m/s, 72° | 375 W/m² | - |
| 1777978790 | 15.56° C | 80% | 1014.8 hPa | 0 mm | 1.79 m/s, 70° | 326 W/m² | - |
| 1777978489 | 16.11° C | 80% | 1015 hPa | 0 mm | 0.89 m/s, 86° | 209 W/m² | - |
| 1777978189 | 16.67° C | 77% | 1015.2 hPa | 0 mm | 0.45 m/s, 72° | 106 W/m² | - |
| 1777977889 | 16.67° C | 75% | 1015.3 hPa | 0.25 mm | 0.45 m/s, 64° | 100 W/m² | - |
| 1777977589 | 16.67° C | 76% | 1015.2 hPa | 0.25 mm | 0.89 m/s, 65° | 135 W/m² | - |
| 1777977289 | 16.67° C | 78% | 1015.3 hPa | 0.25 mm | 0.45 m/s, 67° | 152 W/m² | - |
| 1777976989 | 16.67° C | 76% | 1015.3 hPa | 0.25 mm | 0.45 m/s, 67° | 162 W/m² | - |
| 1777976689 | 16.67° C | 75% | 1015.4 hPa | 0.76 mm | 0 m/s | 127 W/m² | - |
| 1777976389 | 16.67° C | 78% | 1015.4 hPa | 0.76 mm | 0 m/s | 113 W/m² | - |
| 1777976089 | 16.67° C | 77% | 1015.3 hPa | 0.76 mm | 0 m/s | 150 W/m² | - |
| 1777975789 | 16.67° C | 79% | 1015.3 hPa | 0.76 mm | 0 m/s | 161 W/m² | - |
| 1777975489 | 16.67° C | 79% | 1015.2 hPa | 0.76 mm | 0.45 m/s, 67° | 168 W/m² | - |
| 1777975189 | 16.67° C | 78% | 1015.3 hPa | 0.76 mm | 0.45 m/s, 67° | 202 W/m² | - |
| 1777974888 | 16.67° C | 80% | 1015.2 hPa | 0.76 mm | 0 m/s | 226 W/m² | - |
| 1777974588 | 16.67° C | 80% | 1015.1 hPa | 0.76 mm | 0 m/s | 227 W/m² | - |
| 1777974288 | 16.67° C | 80% | 1015.2 hPa | 0.25 mm | 0.89 m/s, 63° | 236 W/m² | - |
| 1777973988 | 16.67° C | 81% | 1015.1 hPa | 0.25 mm | 0 m/s | 221 W/m² | - |
* Rain latest hour (hover to see other rain measurements)
** Current wind speed in m/s (hover to see current wind gust speed)